createdAt,value
2023-06-29T00:01:34.760Z,14.96
2023-06-29T00:04:03.041Z,14.99
2023-06-29T00:06:30.095Z,14.99
2023-06-29T00:08:56.994Z,15.06
2023-06-29T00:11:23.999Z,14.96
2023-06-29T00:13:50.939Z,15.03
2023-06-29T00:16:18.504Z,15.02
2023-06-29T00:18:45.968Z,14.93
2023-06-29T00:21:12.876Z,15.00
2023-06-29T00:23:39.768Z,14.93
2023-06-29T00:26:06.730Z,14.93
2023-06-29T00:28:33.664Z,14.99
2023-06-29T00:31:01.094Z,15.06
2023-06-29T00:33:28.429Z,14.90
2023-06-29T00:35:56.818Z,14.99
2023-06-29T00:38:23.984Z,14.94
2023-06-29T00:40:51.101Z,14.88
2023-06-29T00:43:19.218Z,14.79
2023-06-29T00:45:46.118Z,14.75
2023-06-29T00:48:13.727Z,14.70
2023-06-29T00:50:41.916Z,14.96
2023-06-29T00:53:09.254Z,14.85
2023-06-29T00:55:37.953Z,14.81
2023-06-29T00:58:04.979Z,14.81
2023-06-29T01:00:32.049Z,14.75
2023-06-29T01:02:59.073Z,14.63
2023-06-29T01:05:26.206Z,14.69
2023-06-29T01:08:06.679Z,14.57
2023-06-29T01:10:34.998Z,14.73
2023-06-29T01:13:04.134Z,14.57
2023-06-29T01:15:31.568Z,14.45
2023-06-29T01:18:01.376Z,14.36
2023-06-29T01:20:32.389Z,14.56
2023-06-29T01:23:16.177Z,14.59
2023-06-29T01:25:44.299Z,14.57
2023-06-29T01:28:12.011Z,14.52
2023-06-29T01:30:41.092Z,14.42
2023-06-29T01:33:09.555Z,14.42
2023-06-29T01:35:36.739Z,14.20
2023-06-29T01:38:14.403Z,14.20
2023-06-29T01:40:45.146Z,14.15
2023-06-29T01:43:12.136Z,14.29
2023-06-29T01:45:41.760Z,14.11
2023-06-29T01:48:09.041Z,14.03
2023-06-29T01:50:36.567Z,13.96
2023-06-29T01:53:04.590Z,13.98
2023-06-29T01:55:31.583Z,14.02
2023-06-29T01:57:58.645Z,14.06
2023-06-29T02:00:25.824Z,14.09
2023-06-29T02:02:52.839Z,14.09
2023-06-29T02:05:20.672Z,14.12
2023-06-29T02:07:47.577Z,14.14
2023-06-29T02:10:14.633Z,14.11
2023-06-29T02:12:42.149Z,14.08
2023-06-29T02:15:11.089Z,14.04
2023-06-29T02:17:38.590Z,14.01
2023-06-29T02:20:10.451Z,14.04
2023-06-29T02:22:38.793Z,14.03
2023-06-29T02:25:06.351Z,13.99
2023-06-29T02:27:33.251Z,13.98
2023-06-29T02:30:00.261Z,13.99
2023-06-29T02:32:27.262Z,13.93
2023-06-29T02:34:54.423Z,13.88
2023-06-29T02:37:21.435Z,13.90
2023-06-29T02:39:48.407Z,13.89
2023-06-29T02:42:15.496Z,13.84
2023-06-29T02:44:42.552Z,13.88
2023-06-29T02:47:09.447Z,13.97
2023-06-29T02:49:36.671Z,13.95
2023-06-29T02:52:04.467Z,13.92
2023-06-29T02:54:31.625Z,13.93
2023-06-29T02:56:58.802Z,13.90
2023-06-29T02:59:28.194Z,13.75
2023-06-29T03:01:55.142Z,13.76
2023-06-29T03:04:22.176Z,13.78
2023-06-29T03:06:49.263Z,13.68
2023-06-29T03:09:16.343Z,13.67
2023-06-29T03:11:43.315Z,13.69
2023-06-29T03:14:10.215Z,13.75
2023-06-29T03:16:37.184Z,13.91
2023-06-29T03:19:04.255Z,13.82
2023-06-29T03:21:31.366Z,13.69
2023-06-29T03:23:58.358Z,13.81
2023-06-29T03:26:25.797Z,13.82
2023-06-29T03:28:53.105Z,13.76
2023-06-29T03:31:20.272Z,13.70
2023-06-29T03:33:47.472Z,13.64
2023-06-29T03:36:14.573Z,13.60
2023-06-29T03:38:41.515Z,13.81
2023-06-29T03:41:08.447Z,13.72
2023-06-29T03:43:35.347Z,13.77
2023-06-29T03:46:02.407Z,13.94
2023-06-29T03:48:29.465Z,13.79
2023-06-29T03:50:58.383Z,13.82
2023-06-29T03:53:25.433Z,13.92
2023-06-29T03:55:52.468Z,14.05
2023-06-29T03:58:19.633Z,13.85
2023-06-29T04:00:46.775Z,14.08
2023-06-29T04:03:13.801Z,14.08
2023-06-29T04:05:41.318Z,13.85
2023-06-29T04:08:08.552Z,13.98
2023-06-29T04:10:36.119Z,13.95
2023-06-29T04:13:03.107Z,14.24
2023-06-29T04:15:31.531Z,14.10
2023-06-29T04:17:58.681Z,14.16
2023-06-29T04:20:26.005Z,14.28
2023-06-29T04:22:53.052Z,14.29
2023-06-29T04:25:20.187Z,14.25
2023-06-29T04:27:47.377Z,14.12
2023-06-29T04:30:18.877Z,14.25
2023-06-29T04:32:46.891Z,14.26
2023-06-29T04:35:14.733Z,14.23
2023-06-29T04:37:42.810Z,14.15
2023-06-29T04:40:11.257Z,14.41
2023-06-29T04:42:49.160Z,14.45
2023-06-29T04:45:19.400Z,14.52
2023-06-29T04:47:52.763Z,14.70
2023-06-29T04:50:26.921Z,14.65
2023-06-29T04:52:55.317Z,14.71
2023-06-29T04:55:23.141Z,14.71
2023-06-29T04:57:50.099Z,14.87
2023-06-29T05:00:17.642Z,14.91
2023-06-29T05:02:45.116Z,15.05
2023-06-29T05:05:12.893Z,15.05
2023-06-29T05:07:40.261Z,14.98
2023-06-29T05:10:08.245Z,14.94
2023-06-29T05:12:35.475Z,15.16
2023-06-29T05:15:03.331Z,15.07
2023-06-29T05:17:31.079Z,15.24
2023-06-29T05:19:59.641Z,15.42
2023-06-29T05:22:27.310Z,15.42
2023-06-29T05:24:54.377Z,15.55
2023-06-29T05:27:21.421Z,15.58
2023-06-29T05:29:48.737Z,15.47
2023-06-29T05:32:15.681Z,15.48
2023-06-29T05:34:42.686Z,15.46
2023-06-29T05:37:09.683Z,15.39
2023-06-29T05:39:36.882Z,15.36
2023-06-29T05:42:04.903Z,15.35
2023-06-29T05:44:32.030Z,15.34
2023-06-29T05:46:59.990Z,15.30
2023-06-29T05:49:27.383Z,15.40
2023-06-29T05:51:54.430Z,15.52
2023-06-29T05:54:21.513Z,15.56
2023-06-29T05:56:48.721Z,15.55
2023-06-29T05:59:15.892Z,15.81
2023-06-29T06:01:43.483Z,15.95
2023-06-29T06:04:11.172Z,16.24
2023-06-29T06:06:38.437Z,16.23
2023-06-29T06:09:05.916Z,16.34
2023-06-29T06:11:33.737Z,16.62
2023-06-29T06:14:00.924Z,16.59
2023-06-29T06:16:30.853Z,16.45
2023-06-29T06:18:57.860Z,16.52
2023-06-29T06:21:27.999Z,16.53
2023-06-29T06:23:55.148Z,16.51
2023-06-29T06:26:22.214Z,16.43
2023-06-29T06:28:49.734Z,16.66
2023-06-29T06:31:28.557Z,16.77
2023-06-29T06:33:59.331Z,17.02
2023-06-29T06:36:27.946Z,16.77
2023-06-29T06:38:55.033Z,16.61
2023-06-29T06:41:22.129Z,16.73
2023-06-29T06:43:49.108Z,16.88
2023-06-29T06:46:16.306Z,16.88
2023-06-29T06:48:45.782Z,16.96
2023-06-29T06:51:12.883Z,16.83
2023-06-29T06:53:40.680Z,16.89
2023-06-29T06:56:07.989Z,17.20
2023-06-29T06:58:35.631Z,17.24
2023-06-29T07:01:02.873Z,17.41
2023-06-29T07:03:30.522Z,17.32
2023-06-29T07:05:59.685Z,17.43
2023-06-29T07:08:26.953Z,17.72
2023-06-29T07:10:55.560Z,17.74
2023-06-29T07:13:22.688Z,17.92
2023-06-29T07:15:49.939Z,18.32
2023-06-29T07:18:17.040Z,18.31
2023-06-29T07:25:45.474Z,17.72
2023-06-29T07:28:13.363Z,17.72
2023-06-29T07:30:40.355Z,17.81
2023-06-29T07:33:07.365Z,17.99
2023-06-29T07:35:34.467Z,17.97
2023-06-29T07:38:01.456Z,17.92
2023-06-29T07:40:29.976Z,17.85
2023-06-29T07:42:57.358Z,18.12
2023-06-29T07:45:24.384Z,18.08
2023-06-29T07:47:52.245Z,18.50
2023-06-29T07:50:20.101Z,18.58
2023-06-29T07:52:47.359Z,18.43
2023-06-29T07:55:14.711Z,18.45
2023-06-29T08:00:12.319Z,18.46
2023-06-29T08:02:48.226Z,18.67
2023-06-29T08:07:45.421Z,18.81
2023-06-29T08:10:12.880Z,18.63
2023-06-29T08:12:39.971Z,18.84
2023-06-29T08:15:07.737Z,18.81
2023-06-29T08:17:34.730Z,18.75
2023-06-29T08:20:01.806Z,18.56
2023-06-29T08:22:28.943Z,18.72
2023-06-29T08:24:55.980Z,18.88
2023-06-29T08:27:23.090Z,18.97
2023-06-29T08:29:51.417Z,18.89
2023-06-29T08:32:18.549Z,18.90
2023-06-29T08:34:45.564Z,19.14
2023-06-29T08:37:13.913Z,19.67
2023-06-29T08:39:41.920Z,19.60
2023-06-29T08:42:08.925Z,19.73
2023-06-29T08:44:36.156Z,19.52
2023-06-29T08:47:06.391Z,19.81
2023-06-29T08:49:36.832Z,19.81
2023-06-29T08:52:05.932Z,20.02
2023-06-29T08:54:33.757Z,19.71
2023-06-29T08:57:02.370Z,19.75
2023-06-29T08:59:30.141Z,20.04
2023-06-29T09:02:01.173Z,19.71
2023-06-29T09:04:28.732Z,19.83
2023-06-29T09:06:57.510Z,20.04
2023-06-29T09:09:25.001Z,20.50
2023-06-29T09:11:52.658Z,20.51
2023-06-29T09:14:20.086Z,20.36
2023-06-29T09:16:52.669Z,20.56
2023-06-29T09:19:20.970Z,20.64
2023-06-29T09:21:49.186Z,20.94
2023-06-29T09:24:17.476Z,20.90
2023-06-29T09:26:45.089Z,21.24
2023-06-29T09:29:12.011Z,21.08
2023-06-29T09:31:39.219Z,21.28
2023-06-29T09:34:20.133Z,21.71
2023-06-29T09:36:48.355Z,21.74
2023-06-29T09:39:16.200Z,21.96
2023-06-29T09:41:51.198Z,21.86
2023-06-29T09:44:23.640Z,22.08
2023-06-29T09:49:22.060Z,22.32
2023-06-29T09:51:49.743Z,22.49
2023-06-29T09:54:16.789Z,22.27
2023-06-29T09:56:43.910Z,22.09
2023-06-29T09:59:15.208Z,22.04
2023-06-29T10:01:42.449Z,22.17
2023-06-29T10:04:09.587Z,22.00
2023-06-29T10:06:51.321Z,21.93
2023-06-29T10:09:20.835Z,22.12
2023-06-29T10:11:52.807Z,22.68
2023-06-29T10:14:22.387Z,22.73
2023-06-29T10:16:54.080Z,22.58
2023-06-29T10:19:22.834Z,22.73
2023-06-29T10:21:55.469Z,22.98
2023-06-29T10:24:26.267Z,23.33
2023-06-29T10:26:54.092Z,23.54
2023-06-29T10:29:21.235Z,23.64
2023-06-29T10:31:57.799Z,23.72
2023-06-29T10:34:28.170Z,23.42
2023-06-29T10:37:00.104Z,23.63
2023-06-29T10:39:41.547Z,23.99
2023-06-29T10:43:00.850Z,23.31
2023-06-29T10:45:32.278Z,23.06
2023-06-29T10:48:05.672Z,23.31
2023-06-29T10:50:37.127Z,23.64
2023-06-29T10:53:05.570Z,24.01
2023-06-29T10:55:41.268Z,24.36
2023-06-29T10:58:15.203Z,24.69
2023-06-29T11:00:43.022Z,24.67
2023-06-29T11:03:11.881Z,24.80
2023-06-29T11:05:39.109Z,24.73
2023-06-29T11:08:10.621Z,25.08
2023-06-29T11:10:37.840Z,25.45
2023-06-29T11:13:10.725Z,25.77
2023-06-29T11:15:40.045Z,25.68
2023-06-29T11:18:09.141Z,25.34
2023-06-29T11:20:41.060Z,25.58
2023-06-29T11:23:08.961Z,26.21
2023-06-29T11:25:37.873Z,26.33
2023-06-29T11:28:05.363Z,26.41
2023-06-29T11:30:32.798Z,26.53
2023-06-29T11:33:02.544Z,26.26
2023-06-29T11:35:30.748Z,26.00
2023-06-29T11:38:02.194Z,26.07
2023-06-29T11:40:29.715Z,26.63
2023-06-29T11:42:57.097Z,26.47
2023-06-29T11:45:25.112Z,26.06
2023-06-29T11:47:55.584Z,25.94
2023-06-29T11:50:22.857Z,26.22
2023-06-29T11:52:50.777Z,26.54
2023-06-29T11:55:18.477Z,26.65
2023-06-29T11:57:51.557Z,26.77
2023-06-29T12:00:32.565Z,27.32
2023-06-29T12:03:08.341Z,27.09
2023-06-29T12:05:45.321Z,27.00
2023-06-29T12:08:12.718Z,27.39
2023-06-29T12:10:40.591Z,28.10
2023-06-29T12:13:11.069Z,28.26
2023-06-29T12:15:38.543Z,28.46
2023-06-29T12:18:13.621Z,28.52
2023-06-29T12:20:44.488Z,28.59
2023-06-29T12:23:16.673Z,28.50
2023-06-29T12:25:53.838Z,27.97
2023-06-29T12:28:21.010Z,28.13
2023-06-29T12:30:48.523Z,28.72
2023-06-29T12:33:16.177Z,28.90
2023-06-29T12:35:46.160Z,28.49
2023-06-29T12:38:13.464Z,28.58
2023-06-29T12:40:40.901Z,28.82
2023-06-29T12:43:08.339Z,29.25
2023-06-29T12:45:35.961Z,29.63
2023-06-29T12:48:05.136Z,29.96
2023-06-29T12:50:32.418Z,30.38
2023-06-29T12:52:59.581Z,30.44
2023-06-29T12:55:26.728Z,29.68
2023-06-29T12:57:54.013Z,29.78
2023-06-29T13:00:22.070Z,30.25
2023-06-29T13:02:49.392Z,30.68
2023-06-29T13:05:16.595Z,30.31
2023-06-29T13:07:44.469Z,29.88
2023-06-29T13:10:14.575Z,29.92
2023-06-29T13:12:43.166Z,29.38
2023-06-29T13:15:11.122Z,28.94
2023-06-29T13:17:38.280Z,29.14
2023-06-29T13:20:06.422Z,29.53
2023-06-29T13:22:35.401Z,29.84
2023-06-29T13:25:03.218Z,29.57
2023-06-29T13:27:30.568Z,29.57
2023-06-29T13:29:57.683Z,29.99
2023-06-29T13:32:25.275Z,29.61
2023-06-29T13:34:52.906Z,29.45
2023-06-29T13:37:19.963Z,29.70
2023-06-29T13:39:48.323Z,30.01
2023-06-29T13:42:17.646Z,29.87
2023-06-29T13:44:45.482Z,29.66
2023-06-29T13:47:18.963Z,29.97
2023-06-29T13:49:47.367Z,29.95
2023-06-29T13:52:14.446Z,30.12
2023-06-29T13:54:41.850Z,30.07
2023-06-29T13:57:08.931Z,30.54
2023-06-29T13:59:35.957Z,30.63
2023-06-29T14:02:03.488Z,30.45
2023-06-29T14:04:32.863Z,30.49
2023-06-29T14:06:59.865Z,30.87
2023-06-29T14:09:28.846Z,30.99
2023-06-29T14:12:00.054Z,31.43
2023-06-29T14:14:27.095Z,31.88
2023-06-29T14:16:54.089Z,32.24
2023-06-29T14:19:21.104Z,32.24
2023-06-29T14:21:48.140Z,31.69
2023-06-29T14:24:15.209Z,31.55
2023-06-29T14:26:42.232Z,31.64
2023-06-29T14:29:09.223Z,32.03
2023-06-29T14:31:37.321Z,32.49
2023-06-29T14:34:04.521Z,32.93
2023-06-29T14:36:31.705Z,33.14
2023-06-29T14:38:59.561Z,32.35
2023-06-29T14:41:26.539Z,32.01
2023-06-29T14:43:53.456Z,32.00
2023-06-29T14:46:20.490Z,31.56
2023-06-29T14:48:47.615Z,31.41
2023-06-29T14:51:14.745Z,31.37
2023-06-29T14:53:41.628Z,31.33
2023-06-29T14:56:10.933Z,31.44
2023-06-29T14:58:38.377Z,31.44
2023-06-29T15:01:05.736Z,31.10
2023-06-29T15:03:33.249Z,31.25
2023-06-29T15:06:00.518Z,30.81
2023-06-29T15:08:28.360Z,30.54
2023-06-29T15:10:55.650Z,30.35
2023-06-29T15:13:23.028Z,30.24
2023-06-29T15:15:50.396Z,30.07
2023-06-29T15:18:19.165Z,30.09
2023-06-29T15:20:46.981Z,30.06
2023-06-29T15:23:14.501Z,29.98
2023-06-29T15:25:42.745Z,30.06
2023-06-29T15:28:11.988Z,30.31
2023-06-29T15:30:52.084Z,30.25
2023-06-29T15:33:20.284Z,30.20
2023-06-29T15:35:47.814Z,30.09
2023-06-29T15:38:15.383Z,30.16
2023-06-29T15:40:42.872Z,30.08
2023-06-29T15:43:10.089Z,30.00
2023-06-29T15:45:37.200Z,29.92
2023-06-29T15:48:04.490Z,29.62
2023-06-29T15:50:31.474Z,29.71
2023-06-29T15:52:58.891Z,30.09
2023-06-29T15:55:26.042Z,30.10
2023-06-29T15:57:53.081Z,30.10
2023-06-29T16:00:20.441Z,30.34
2023-06-29T16:02:48.764Z,30.54
2023-06-29T16:05:16.165Z,30.84
2023-06-29T16:07:43.179Z,30.97
2023-06-29T16:10:10.898Z,30.34
2023-06-29T16:12:37.924Z,30.03
2023-06-29T16:15:05.671Z,30.06
2023-06-29T16:17:33.401Z,30.04
2023-06-29T16:20:00.600Z,29.91
2023-06-29T16:22:28.373Z,29.84
2023-06-29T16:24:55.569Z,30.10
2023-06-29T16:27:22.549Z,29.77
2023-06-29T16:29:49.529Z,29.45
2023-06-29T16:32:16.820Z,29.67
2023-06-29T16:34:44.001Z,29.73
2023-06-29T16:37:11.224Z,29.94
2023-06-29T16:39:38.580Z,30.88
2023-06-29T16:42:06.424Z,31.11
2023-06-29T16:44:36.621Z,30.87
2023-06-29T16:47:03.805Z,31.50
2023-06-29T16:49:31.077Z,31.53
2023-06-29T16:51:58.136Z,31.77
2023-06-29T16:54:25.474Z,32.41
2023-06-29T16:56:52.400Z,33.05
2023-06-29T16:59:19.328Z,33.02
2023-06-29T17:01:46.410Z,33.17
2023-06-29T17:04:13.785Z,33.48
2023-06-29T17:06:40.808Z,33.21
2023-06-29T17:09:07.941Z,33.35
2023-06-29T17:11:35.006Z,33.84
2023-06-29T17:14:02.723Z,33.59
2023-06-29T17:16:29.966Z,33.40
2023-06-29T17:18:57.096Z,32.81
2023-06-29T17:21:28.444Z,31.88
2023-06-29T17:23:55.780Z,31.53
2023-06-29T17:26:24.287Z,31.71
2023-06-29T17:28:51.325Z,31.49
2023-06-29T17:31:18.522Z,31.04
2023-06-29T17:33:54.736Z,30.70
2023-06-29T17:36:23.719Z,30.31
2023-06-29T17:38:51.450Z,30.08
2023-06-29T17:41:18.718Z,30.16
2023-06-29T17:43:45.998Z,29.89
2023-06-29T17:46:14.227Z,29.39
2023-06-29T17:48:41.456Z,28.99
2023-06-29T17:51:18.940Z,28.51
2023-06-29T17:53:47.342Z,28.06
2023-06-29T17:56:15.839Z,27.37
2023-06-29T17:58:46.477Z,26.61
2023-06-29T18:01:14.282Z,26.16
2023-06-29T18:03:41.990Z,25.51
2023-06-29T18:06:09.447Z,25.01
2023-06-29T18:08:36.450Z,24.57
2023-06-29T18:11:04.141Z,24.30
2023-06-29T18:13:31.075Z,24.05
2023-06-29T18:15:58.059Z,23.81
2023-06-29T18:18:25.053Z,23.48
2023-06-29T18:20:51.980Z,23.31
2023-06-29T18:23:18.971Z,23.24
2023-06-29T18:25:46.459Z,23.18
2023-06-29T18:28:13.769Z,23.06
2023-06-29T18:30:40.766Z,22.91
2023-06-29T18:33:07.817Z,22.80
2023-06-29T18:35:34.794Z,22.73
2023-06-29T18:38:01.772Z,22.67
2023-06-29T18:40:29.349Z,22.56
2023-06-29T18:42:56.379Z,22.43
2023-06-29T18:45:26.022Z,22.36
2023-06-29T18:47:53.423Z,22.23
2023-06-29T18:50:20.612Z,22.11
2023-06-29T18:55:14.708Z,21.86
2023-06-29T18:57:41.782Z,21.75
2023-06-29T19:00:09.579Z,21.64
2023-06-29T19:02:36.662Z,21.55
2023-06-29T19:05:06.209Z,21.46
2023-06-29T19:07:33.227Z,21.38
2023-06-29T19:10:00.279Z,21.29
2023-06-29T19:12:27.355Z,21.20
2023-06-29T19:14:54.518Z,21.10
2023-06-29T19:17:21.893Z,21.05
2023-06-29T19:19:49.195Z,20.98
2023-06-29T19:22:16.430Z,20.90
2023-06-29T19:24:43.340Z,20.83
2023-06-29T19:27:10.449Z,20.80
2023-06-29T19:29:37.414Z,20.77
2023-06-29T19:32:06.174Z,20.74
2023-06-29T19:34:34.857Z,20.68
2023-06-29T19:37:04.214Z,20.59
2023-06-29T19:39:31.388Z,20.52
2023-06-29T19:41:58.441Z,20.44
2023-06-29T19:44:25.612Z,20.34
2023-06-29T19:46:52.828Z,20.26
2023-06-29T19:49:20.248Z,20.15
2023-06-29T19:51:47.259Z,20.05
2023-06-29T19:54:14.256Z,19.98
2023-06-29T19:56:41.367Z,19.96
2023-06-29T19:59:08.607Z,19.91
2023-06-29T20:01:35.630Z,19.86
2023-06-29T20:04:02.837Z,19.85
2023-06-29T20:06:31.284Z,19.79
2023-06-29T20:08:58.311Z,19.71
2023-06-29T20:11:25.632Z,19.55
2023-06-29T20:13:52.650Z,19.41
2023-06-29T20:16:19.809Z,19.29
2023-06-29T20:18:46.930Z,19.19
2023-06-29T20:21:15.072Z,19.14
2023-06-29T20:23:42.090Z,19.09
2023-06-29T20:26:09.167Z,19.09
2023-06-29T20:28:36.106Z,19.08
2023-06-29T20:31:03.190Z,19.04
2023-06-29T20:33:30.258Z,18.98
2023-06-29T20:35:57.258Z,18.95
2023-06-29T20:38:24.201Z,18.91
2023-06-29T20:40:51.190Z,18.87
2023-06-29T20:43:18.246Z,18.80
2023-06-29T20:45:49.564Z,18.80
2023-06-29T20:48:17.115Z,18.70
2023-06-29T20:50:44.263Z,18.63
2023-06-29T20:53:11.568Z,18.60
2023-06-29T20:55:38.541Z,18.54
2023-06-29T20:58:05.693Z,18.44
2023-06-29T21:00:35.264Z,18.36
2023-06-29T21:03:02.282Z,18.24
2023-06-29T21:05:29.277Z,18.18
2023-06-29T21:07:56.347Z,18.16
2023-06-29T21:10:23.495Z,18.16
2023-06-29T21:12:50.930Z,18.17
2023-06-29T21:15:18.241Z,18.16
2023-06-29T21:17:45.380Z,18.13
2023-06-29T21:20:13.186Z,18.11
2023-06-29T21:22:40.675Z,18.08
2023-06-29T21:25:08.857Z,18.04
2023-06-29T21:27:36.757Z,17.97
2023-06-29T21:30:04.349Z,17.89
2023-06-29T21:32:31.615Z,17.87
2023-06-29T21:34:58.923Z,17.88
2023-06-29T21:37:26.057Z,17.84
2023-06-29T21:39:52.978Z,17.76
2023-06-29T21:42:20.025Z,17.64
2023-06-29T21:44:47.348Z,17.77
2023-06-29T21:47:14.469Z,17.74
2023-06-29T21:49:41.648Z,17.66
2023-06-29T21:52:08.965Z,17.57
2023-06-29T21:54:35.936Z,17.52
2023-06-29T21:57:03.116Z,17.52
2023-06-29T21:59:33.339Z,17.56
2023-06-29T22:02:01.546Z,17.60
2023-06-29T22:04:30.352Z,17.59
2023-06-29T22:07:06.490Z,17.60
2023-06-29T22:09:42.354Z,17.60
2023-06-29T22:12:13.025Z,17.61
2023-06-29T22:14:40.267Z,17.54
2023-06-29T22:17:08.204Z,17.53
2023-06-29T22:19:38.157Z,17.53
2023-06-29T22:22:07.908Z,17.52
2023-06-29T22:24:34.810Z,17.54
2023-06-29T22:27:01.770Z,17.56
2023-06-29T22:29:28.748Z,17.55
2023-06-29T22:31:55.743Z,17.53
2023-06-29T22:34:22.691Z,17.49
2023-06-29T22:36:49.656Z,17.44
2023-06-29T22:39:16.661Z,17.37
2023-06-29T22:41:43.617Z,17.34
2023-06-29T22:44:10.545Z,17.32
2023-06-29T22:46:37.686Z,17.29
2023-06-29T22:49:04.625Z,17.24
2023-06-29T22:51:31.696Z,17.23
2023-06-29T22:53:59.328Z,17.15
2023-06-29T22:56:26.341Z,17.08
2023-06-29T22:59:14.543Z,17.02
2023-06-29T23:01:42.219Z,17.07
2023-06-29T23:04:09.696Z,17.11
2023-06-29T23:06:40.837Z,17.14
2023-06-29T23:09:11.556Z,17.17
2023-06-29T23:11:39.481Z,17.13
2023-06-29T23:14:07.293Z,17.07
2023-06-29T23:16:34.351Z,17.03
2023-06-29T23:19:01.761Z,17.00
2023-06-29T23:21:29.280Z,16.95
2023-06-29T23:23:56.651Z,16.96
2023-06-29T23:26:24.313Z,16.94
2023-06-29T23:28:54.739Z,17.08
2023-06-29T23:31:22.692Z,17.13
2023-06-29T23:33:50.528Z,17.01
2023-06-29T23:36:27.222Z,16.87
2023-06-29T23:38:58.620Z,16.85
2023-06-29T23:41:31.572Z,16.85
2023-06-29T23:44:07.740Z,16.86
2023-06-29T23:46:45.936Z,16.88
2023-06-29T23:49:18.326Z,16.93
2023-06-29T23:51:46.003Z,16.96
2023-06-29T23:54:13.185Z,16.97
2023-06-29T23:56:41.419Z,17.03
2023-06-29T23:59:10.448Z,17.09
